createdAt,value
2019-03-01T00:01:56.048Z,99415.64
2019-03-01T00:06:16.865Z,99417.44
2019-03-01T00:11:26.770Z,99414.34
2019-03-01T00:16:06.814Z,99415.28
2019-03-01T00:20:37.069Z,99423.74
2019-03-01T00:24:58.568Z,99416.71
2019-03-01T00:29:48.651Z,99426.48
2019-03-01T00:34:04.562Z,99414.21
2019-03-01T00:38:34.158Z,99423.56
2019-03-01T00:43:28.693Z,99424.06
2019-03-01T00:47:33.233Z,99427.25
2019-03-01T00:51:37.464Z,99438.79
2019-03-01T00:55:41.699Z,99433.98
2019-03-01T00:59:45.892Z,99423.95
2019-03-01T01:03:50.449Z,99430.23
2019-03-01T01:07:54.642Z,99417.45
2019-03-01T01:11:58.935Z,99425.42
2019-03-01T01:16:03.174Z,99414.55
2019-03-01T01:20:08.205Z,99432.61
2019-03-01T01:24:12.403Z,99443.64
2019-03-01T01:28:16.577Z,99437.06
2019-03-01T01:32:20.983Z,99454.23
2019-03-01T01:36:25.198Z,99454.23
2019-03-01T01:40:29.620Z,99453.81
2019-03-01T01:44:33.879Z,99455.58
2019-03-01T01:48:38.109Z,99456.86
2019-03-01T01:52:42.311Z,99454.22
2019-03-01T01:56:46.542Z,99442.36
2019-03-01T02:00:51.134Z,99434.86
2019-03-01T02:04:55.464Z,99444.14
2019-03-01T02:08:59.624Z,99431.39
2019-03-01T02:13:03.866Z,99419.07
2019-03-01T02:17:08.043Z,99423.55
2019-03-01T02:21:12.390Z,99416.98
2019-03-01T02:25:16.621Z,99410.84
2019-03-01T02:29:20.840Z,99393.28
2019-03-01T02:33:25.031Z,99380.66
2019-03-01T02:37:29.254Z,99380.66
2019-03-01T02:41:33.479Z,99382.89
2019-03-01T02:45:37.797Z,99378.15
2019-03-01T02:49:42.030Z,99378.15
2019-03-01T02:53:46.575Z,99368.53
2019-03-01T02:57:50.807Z,99361.17
2019-03-01T03:01:55.075Z,99361.17
2019-03-01T03:06:17.122Z,99378.84
2019-03-01T03:10:21.580Z,99378.84
2019-03-01T03:14:25.803Z,99395.16
2019-03-01T03:18:30.130Z,99394.80
2019-03-01T03:22:34.387Z,99405.35
2019-03-01T03:26:39.018Z,99401.80
2019-03-01T03:30:43.206Z,99393.47
2019-03-01T03:34:47.427Z,99399.57
2019-03-01T03:38:51.665Z,99398.25
2019-03-01T03:42:55.862Z,99409.72
2019-03-01T03:47:00.071Z,99404.92
2019-03-01T03:51:04.342Z,99395.43
2019-03-01T03:55:10.062Z,99395.43
2019-03-01T03:59:14.389Z,99401.56
2019-03-01T04:03:18.975Z,99395.43
2019-03-01T04:07:23.190Z,99399.45
2019-03-01T04:11:27.413Z,99399.45
2019-03-01T04:15:31.626Z,99409.59
2019-03-01T04:19:35.908Z,99409.59
2019-03-01T04:23:40.145Z,99411.80
2019-03-01T04:27:44.621Z,99424.17
2019-03-01T04:31:48.891Z,99425.50
2019-03-01T04:35:53.169Z,99430.41
2019-03-01T04:39:57.464Z,99430.41
2019-03-01T04:44:01.710Z,99428.73
2019-03-01T04:48:05.910Z,99428.73
2019-03-01T04:52:31.906Z,99432.25
2019-03-01T04:56:36.183Z,99420.91
2019-03-01T05:00:40.407Z,99420.93
2019-03-01T05:04:44.611Z,99416.13
2019-03-01T05:08:48.802Z,99417.47
2019-03-01T05:12:53.096Z,99416.27
2019-03-01T05:16:57.352Z,99410.17
2019-03-01T05:21:01.526Z,99410.17
2019-03-01T05:25:06.210Z,99408.95
2019-03-01T05:29:10.762Z,99422.53
2019-03-01T05:33:14.965Z,99424.38
2019-03-01T05:37:19.189Z,99435.36
2019-03-01T05:41:23.431Z,99437.15
2019-03-01T05:45:27.666Z,99433.67
2019-03-01T05:49:31.861Z,99429.74
2019-03-01T05:53:36.094Z,99424.94
2019-03-01T05:58:17.028Z,99428.49
2019-03-01T06:02:35.911Z,99440.81
2019-03-01T06:07:16.765Z,99443.45
2019-03-01T06:11:49.002Z,99436.86
2019-03-01T06:16:18.662Z,99436.41
2019-03-01T06:21:06.716Z,99419.27
2019-03-01T06:25:49.072Z,99420.58
2019-03-01T06:30:01.667Z,99422.75
2019-03-01T06:34:38.542Z,99420.95
2019-03-01T06:39:48.492Z,99429.73
2019-03-01T06:44:46.229Z,99437.63
2019-03-01T06:48:54.983Z,99437.17
2019-03-01T06:52:59.213Z,99420.90
2019-03-01T06:57:03.446Z,99426.60
2019-03-01T07:01:11.722Z,99420.43
2019-03-01T07:05:15.940Z,99427.41
2019-03-01T07:09:20.135Z,99422.53
2019-03-01T07:13:24.391Z,99433.50
2019-03-01T07:17:28.931Z,99440.95
2019-03-01T07:21:33.125Z,99432.10
2019-03-01T07:25:37.339Z,99422.83
2019-03-01T07:29:41.550Z,99425.38
2019-03-01T07:33:45.751Z,99417.34
2019-03-01T07:37:50.003Z,99425.09
2019-03-01T07:41:54.217Z,99418.89
2019-03-01T07:45:58.503Z,99418.89
2019-03-01T07:50:02.701Z,99422.82
2019-03-01T07:54:06.927Z,99415.38
2019-03-01T07:58:11.145Z,99435.17
2019-03-01T08:02:15.368Z,99424.66
2019-03-01T08:06:19.540Z,99425.95
2019-03-01T08:10:23.787Z,99426.78
2019-03-01T08:14:31.283Z,99426.78
2019-03-01T08:18:33.965Z,99436.84
2019-03-01T08:22:48.086Z,99436.84
2019-03-01T08:26:44.173Z,99419.71
2019-03-01T08:30:48.366Z,99429.33
2019-03-01T08:34:53.680Z,99429.33
2019-03-01T08:39:00.997Z,99429.76
2019-03-01T08:43:04.495Z,99416.96
2019-03-01T08:47:08.951Z,99416.96
2019-03-01T08:51:13.179Z,99419.17
2019-03-01T08:55:18.520Z,99414.24
2019-03-01T08:59:22.710Z,99412.42
2019-03-01T09:03:34.042Z,99407.02
2019-03-01T09:07:38.234Z,99407.89
2019-03-01T09:11:44.740Z,99406.09
2019-03-01T09:15:49.461Z,99396.92
2019-03-01T09:19:57.191Z,99400.39
2019-03-01T09:24:00.542Z,99390.70
2019-03-01T09:28:05.418Z,99390.20
2019-03-01T09:32:09.647Z,99379.22
2019-03-01T09:36:21.469Z,99389.25
2019-03-01T09:40:28.848Z,99385.26
2019-03-01T09:44:34.617Z,99385.26
2019-03-01T09:48:37.653Z,99370.69
2019-03-01T09:52:41.880Z,99362.72
2019-03-01T09:56:46.112Z,99358.36
2019-03-01T10:00:56.621Z,99350.41
2019-03-01T10:05:00.623Z,99361.14
2019-03-01T10:09:10.664Z,99357.89
2019-03-01T10:13:14.887Z,99347.20
2019-03-01T10:17:19.341Z,99352.72
2019-03-01T10:21:23.762Z,99354.28
2019-03-01T10:25:27.943Z,99349.30
2019-03-01T10:29:32.152Z,99353.66
2019-03-01T10:33:36.452Z,99346.63
2019-03-01T10:37:40.777Z,99331.95
2019-03-01T10:41:45.127Z,99337.25
2019-03-01T10:45:49.673Z,99330.76
2019-03-01T10:49:53.860Z,99327.12
2019-03-01T10:53:58.067Z,99331.47
2019-03-01T10:58:02.248Z,99316.92
2019-03-01T11:02:06.535Z,99306.31
2019-03-01T11:06:11.043Z,99311.58
2019-03-01T11:10:17.588Z,99312.73
2019-03-01T11:14:21.816Z,99305.58
2019-03-01T11:18:26.026Z,99299.93
2019-03-01T11:22:30.242Z,99311.08
2019-03-01T11:26:34.469Z,99309.77
2019-03-01T11:30:38.708Z,99309.70
2019-03-01T11:34:42.982Z,99306.98
2019-03-01T11:38:47.209Z,99317.31
2019-03-01T11:42:51.428Z,99301.97
2019-03-01T11:46:55.619Z,99306.47
2019-03-01T11:50:59.905Z,99299.61
2019-03-01T11:55:04.251Z,99300.87
2019-03-01T11:59:08.484Z,99303.31
2019-03-01T12:03:12.757Z,99297.98
2019-03-01T12:07:16.943Z,99289.58
2019-03-01T12:11:21.305Z,99303.29
2019-03-01T12:15:25.493Z,99278.20
2019-03-01T12:19:29.741Z,99288.04
2019-03-01T12:23:33.972Z,99281.55
2019-03-01T12:27:38.598Z,99272.13
2019-03-01T12:31:42.904Z,99274.95
2019-03-01T12:35:47.099Z,99270.09
2019-03-01T12:39:52.126Z,99264.25
2019-03-01T12:43:56.302Z,99254.94
2019-03-01T12:48:00.549Z,99255.78
2019-03-01T12:52:05.151Z,99262.27
2019-03-01T12:56:09.331Z,99261.97
2019-03-01T13:00:16.218Z,99269.20
2019-03-01T13:04:20.408Z,99244.06
2019-03-01T13:08:24.664Z,99241.47
2019-03-01T13:12:28.865Z,99242.39
2019-03-01T13:16:33.126Z,99249.91
2019-03-01T13:20:38.161Z,99247.48
2019-03-01T13:24:42.476Z,99246.20
2019-03-01T13:28:47.251Z,99239.89
2019-03-01T13:32:54.840Z,99254.19
2019-03-01T13:36:58.490Z,99247.84
2019-03-01T13:41:03.046Z,99252.05
2019-03-01T13:45:08.398Z,99240.88
2019-03-01T13:49:12.599Z,99239.19
2019-03-01T13:53:16.865Z,99243.95
2019-03-01T13:57:21.133Z,99227.03
2019-03-01T14:01:27.067Z,99238.49
2019-03-01T14:05:31.319Z,99231.84
2019-03-01T14:09:35.505Z,99240.11
2019-03-01T14:13:39.735Z,99235.52
2019-03-01T14:17:44.024Z,99233.34
2019-03-01T14:21:48.258Z,99226.19
2019-03-01T14:25:54.549Z,99231.81
2019-03-01T14:29:58.420Z,99245.94
2019-03-01T14:34:02.652Z,99241.69
2019-03-01T14:38:08.344Z,99248.83
2019-03-01T14:42:12.603Z,99238.37
2019-03-01T14:46:17.667Z,99247.72
2019-03-01T14:50:23.681Z,99254.76
2019-03-01T14:54:27.923Z,99247.72
2019-03-01T14:58:36.278Z,99251.27
2019-03-01T15:03:19.633Z,99251.81
2019-03-01T15:07:23.870Z,99250.42
2019-03-01T15:11:28.385Z,99247.36
2019-03-01T15:15:32.937Z,99239.06
2019-03-01T15:19:37.548Z,99244.89
2019-03-01T15:23:41.782Z,99243.70
2019-03-01T15:27:45.966Z,99246.87
2019-03-01T15:31:51.091Z,99247.29
2019-03-01T15:35:56.148Z,99244.70
2019-03-01T15:40:00.521Z,99242.94
2019-03-01T15:44:04.755Z,99244.39
2019-03-01T15:48:08.990Z,99246.67
2019-03-01T15:52:13.903Z,99244.63
2019-03-01T15:56:18.870Z,99252.36
2019-03-01T16:00:25.540Z,99250.38
2019-03-01T16:04:30.405Z,99235.59
2019-03-01T16:08:36.896Z,99241.88
2019-03-01T16:12:40.927Z,99238.89
2019-03-01T16:16:45.780Z,99238.49
2019-03-01T16:20:51.642Z,99239.84
2019-03-01T16:24:55.881Z,99248.70
2019-03-01T16:29:00.127Z,99254.55
2019-03-01T16:33:04.397Z,99261.64
2019-03-01T16:37:08.598Z,99271.41
2019-03-01T16:41:13.765Z,99270.58
2019-03-01T16:45:21.111Z,99274.56
2019-03-01T16:49:27.191Z,99286.93
2019-03-01T16:53:30.228Z,99289.58
2019-03-01T16:57:34.460Z,99287.42
2019-03-01T17:01:40.641Z,99284.80
2019-03-01T17:05:44.605Z,99296.25
2019-03-01T17:09:51.358Z,99306.78
2019-03-01T17:13:54.938Z,99305.47
2019-03-01T17:17:59.151Z,99295.80
2019-03-01T17:22:03.343Z,99315.55
2019-03-01T17:26:07.595Z,99326.98
2019-03-01T17:30:15.067Z,99343.19
2019-03-01T17:34:21.843Z,99359.44
2019-03-01T17:38:26.417Z,99357.67
2019-03-01T17:42:30.644Z,99383.14
2019-03-01T17:46:35.175Z,99392.36
2019-03-01T17:50:41.722Z,99389.32
2019-03-01T17:54:45.426Z,99397.27
2019-03-01T17:58:49.663Z,99385.00
2019-03-01T18:02:53.934Z,99398.61
2019-03-01T18:06:58.197Z,99402.56
2019-03-01T18:11:05.429Z,99412.22
2019-03-01T18:15:12.355Z,99417.52
2019-03-01T18:19:16.430Z,99399.98
2019-03-01T18:23:20.660Z,99409.19
2019-03-01T18:27:24.888Z,99409.19
2019-03-01T18:31:34.545Z,99392.53
2019-03-01T18:35:35.077Z,99398.20
2019-03-01T18:39:41.129Z,99406.99
2019-03-01T18:43:45.856Z,99414.01
2019-03-01T18:47:51.620Z,99411.38
2019-03-01T18:51:55.845Z,99403.03
2019-03-01T18:56:00.074Z,99402.61
2019-03-01T19:00:06.633Z,99394.72
2019-03-01T19:04:12.990Z,99392.08
2019-03-01T19:08:16.900Z,99379.38
2019-03-01T19:12:21.084Z,99386.41
2019-03-01T19:16:28.432Z,99392.97
2019-03-01T19:20:31.617Z,99403.94
2019-03-01T19:24:42.899Z,99401.72
2019-03-01T19:28:41.844Z,99400.86
2019-03-01T19:32:46.088Z,99403.92
2019-03-01T19:36:50.518Z,99410.05
2019-03-01T19:40:54.846Z,99419.25
2019-03-01T19:45:00.796Z,99421.45
2019-03-01T19:49:05.352Z,99427.56
2019-03-01T19:53:09.585Z,99432.39
2019-03-01T19:57:13.821Z,99437.66
2019-03-01T20:01:18.598Z,99435.02
2019-03-01T20:05:27.794Z,99432.40
2019-03-01T20:09:30.452Z,99433.72
2019-03-01T20:13:35.255Z,99438.08
2019-03-01T20:17:44.440Z,99439.86
2019-03-01T20:21:45.820Z,99434.16
2019-03-01T20:25:51.049Z,99427.13
2019-03-01T20:29:56.048Z,99436.78
2019-03-01T20:34:01.898Z,99439.83
2019-03-01T20:38:06.362Z,99445.11
2019-03-01T20:42:10.807Z,99451.66
2019-03-01T20:46:15.435Z,99457.37
2019-03-01T20:50:19.642Z,99453.44
2019-03-01T20:54:25.832Z,99459.13
2019-03-01T20:58:29.848Z,99463.08
2019-03-01T21:02:34.085Z,99468.78
2019-03-01T21:06:40.562Z,99468.75
2019-03-01T21:10:46.815Z,99467.89
2019-03-01T21:14:50.557Z,99470.52
2019-03-01T21:18:55.139Z,99477.95
2019-03-01T21:22:59.333Z,99477.97
2019-03-01T21:27:03.766Z,99486.73
2019-03-01T21:31:08.178Z,99491.12
2019-03-01T21:35:13.883Z,99497.25
2019-03-01T21:39:20.646Z,99490.67
2019-03-01T21:43:24.518Z,99499.89
2019-03-01T21:47:29.406Z,99511.72
2019-03-01T21:51:34.885Z,99506.45
2019-03-01T21:55:39.176Z,99516.10
2019-03-01T21:59:43.435Z,99513.92
2019-03-01T22:03:47.636Z,99524.42
2019-03-01T22:07:51.871Z,99513.45
2019-03-01T22:11:56.069Z,99521.34
2019-03-01T22:16:00.993Z,99526.59
2019-03-01T22:20:08.990Z,99523.09
2019-03-01T22:24:12.977Z,99520.91
2019-03-01T22:28:17.275Z,99532.30
2019-03-01T22:32:21.460Z,99533.17
2019-03-01T22:36:25.724Z,99533.63
2019-03-01T22:40:29.921Z,99535.79
2019-03-01T22:44:36.534Z,99537.09
2019-03-01T22:48:46.791Z,99539.28
2019-03-01T22:52:46.064Z,99549.37
2019-03-01T22:56:50.299Z,99543.64
2019-03-01T23:01:24.864Z,99539.25
2019-03-01T23:05:29.404Z,99541.42
2019-03-01T23:09:33.622Z,99532.25
2019-03-01T23:13:37.838Z,99546.69
2019-03-01T23:17:42.089Z,99555.86
2019-03-01T23:21:46.687Z,99561.08
2019-03-01T23:25:50.932Z,99571.16
2019-03-01T23:29:55.168Z,99592.14
2019-03-01T23:33:59.483Z,99598.23
2019-03-01T23:38:03.679Z,99589.42
2019-03-01T23:42:07.964Z,99599.02
2019-03-01T23:46:12.512Z,99598.55
2019-03-01T23:50:16.847Z,99605.52
2019-03-01T23:54:21.027Z,99612.02
2019-03-01T23:58:25.608Z,99620.27
